sensor_id;sensor_type;location;lat;lon;timestamp;P1;durP1;ratioP1;P2;durP2;ratioP2
69188;SDS011;56302;52.322;5.926;2022-08-19T00:00:01;6.20;;;4.13;;
69188;SDS011;56302;52.322;5.926;2022-08-19T00:02:32;6.82;;;4.35;;
69188;SDS011;56302;52.322;5.926;2022-08-19T00:04:57;6.63;;;4.50;;
69188;SDS011;56302;52.322;5.926;2022-08-19T00:07:23;6.00;;;3.88;;
69188;SDS011;56302;52.322;5.926;2022-08-19T00:09:48;5.07;;;3.50;;
69188;SDS011;56302;52.322;5.926;2022-08-19T00:12:14;5.67;;;3.73;;
69188;SDS011;56302;52.322;5.926;2022-08-19T00:14:40;5.93;;;3.70;;
69188;SDS011;56302;52.322;5.926;2022-08-19T00:17:06;5.65;;;3.40;;
69188;SDS011;56302;52.322;5.926;2022-08-19T00:19:33;5.30;;;4.10;;
69188;SDS011;56302;52.322;5.926;2022-08-19T00:21:59;7.60;;;4.00;;
69188;SDS011;56302;52.322;5.926;2022-08-19T00:24:26;5.65;;;4.00;;
69188;SDS011;56302;52.322;5.926;2022-08-19T00:26:53;6.53;;;4.57;;
69188;SDS011;56302;52.322;5.926;2022-08-19T00:29:21;6.45;;;4.18;;
69188;SDS011;56302;52.322;5.926;2022-08-19T00:31:48;6.22;;;4.28;;
69188;SDS011;56302;52.322;5.926;2022-08-19T00:34:17;6.60;;;3.90;;
69188;SDS011;56302;52.322;5.926;2022-08-19T00:36:43;7.78;;;3.50;;
69188;SDS011;56302;52.322;5.926;2022-08-19T00:39:10;6.50;;;3.40;;
69188;SDS011;56302;52.322;5.926;2022-08-19T00:41:36;8.87;;;3.67;;
69188;SDS011;56302;52.322;5.926;2022-08-19T00:46:32;6.72;;;4.78;;
69188;SDS011;56302;52.322;5.926;2022-08-19T00:49:02;7.25;;;3.97;;
69188;SDS011;56302;52.322;5.926;2022-08-19T00:51:33;7.97;;;3.50;;
69188;SDS011;56302;52.322;5.926;2022-08-19T00:53:59;5.75;;;2.90;;
69188;SDS011;56302;52.322;5.926;2022-08-19T00:56:26;6.10;;;2.93;;
69188;SDS011;56302;52.322;5.926;2022-08-19T00:58:52;4.20;;;3.03;;
69188;SDS011;56302;52.322;5.926;2022-08-19T01:01:20;4.88;;;3.28;;
69188;SDS011;56302;52.322;5.926;2022-08-19T01:03:46;5.00;;;3.50;;
69188;SDS011;56302;52.322;5.926;2022-08-19T01:06:11;5.75;;;3.00;;
69188;SDS011;56302;52.322;5.926;2022-08-19T01:08:37;5.27;;;4.07;;
69188;SDS011;56302;52.322;5.926;2022-08-19T01:11:02;5.70;;;3.77;;
69188;SDS011;56302;52.322;5.926;2022-08-19T01:13:30;5.57;;;3.92;;
69188;SDS011;56302;52.322;5.926;2022-08-19T01:16:00;6.20;;;4.25;;
69188;SDS011;56302;52.322;5.926;2022-08-19T01:18:31;6.43;;;4.05;;
69188;SDS011;56302;52.322;5.926;2022-08-19T01:21:02;7.75;;;4.47;;
69188;SDS011;56302;52.322;5.926;2022-08-19T01:23:32;7.30;;;4.07;;
69188;SDS011;56302;52.322;5.926;2022-08-19T01:26:08;6.95;;;4.82;;
69188;SDS011;56302;52.322;5.926;2022-08-19T01:28:42;7.00;;;4.30;;
69188;SDS011;56302;52.322;5.926;2022-08-19T01:31:24;5.60;;;4.30;;
69188;SDS011;56302;52.322;5.926;2022-08-19T01:33:51;6.32;;;4.85;;
69188;SDS011;56302;52.322;5.926;2022-08-19T01:36:29;6.63;;;4.00;;
69188;SDS011;56302;52.322;5.926;2022-08-19T01:38:57;5.68;;;3.80;;
69188;SDS011;56302;52.322;5.926;2022-08-19T01:41:23;6.35;;;3.85;;
69188;SDS011;56302;52.322;5.926;2022-08-19T01:43:50;5.53;;;4.17;;
69188;SDS011;56302;52.322;5.926;2022-08-19T01:46:16;6.60;;;4.37;;
69188;SDS011;56302;52.322;5.926;2022-08-19T01:48:42;6.22;;;4.78;;
69188;SDS011;56302;52.322;5.926;2022-08-19T01:51:09;7.75;;;5.50;;
69188;SDS011;56302;52.322;5.926;2022-08-19T01:53:35;7.00;;;4.50;;
69188;SDS011;56302;52.322;5.926;2022-08-19T01:56:02;7.57;;;5.03;;
69188;SDS011;56302;52.322;5.926;2022-08-19T01:58:34;5.80;;;4.47;;
69188;SDS011;56302;52.322;5.926;2022-08-19T02:01:06;6.38;;;4.65;;
69188;SDS011;56302;52.322;5.926;2022-08-19T02:03:32;7.13;;;4.75;;
69188;SDS011;56302;52.322;5.926;2022-08-19T02:05:59;8.80;;;4.63;;
69188;SDS011;56302;52.322;5.926;2022-08-19T02:08:27;6.93;;;5.18;;
69188;SDS011;56302;52.322;5.926;2022-08-19T02:10:54;6.37;;;4.67;;
69188;SDS011;56302;52.322;5.926;2022-08-19T02:13:20;6.82;;;5.03;;
69188;SDS011;56302;52.322;5.926;2022-08-19T02:15:46;6.68;;;5.03;;
69188;SDS011;56302;52.322;5.926;2022-08-19T02:18:11;8.57;;;5.00;;
69188;SDS011;56302;52.322;5.926;2022-08-19T02:20:38;6.03;;;4.93;;
69188;SDS011;56302;52.322;5.926;2022-08-19T02:23:06;6.32;;;4.50;;
69188;SDS011;56302;52.322;5.926;2022-08-19T02:25:32;8.23;;;4.57;;
69188;SDS011;56302;52.322;5.926;2022-08-19T02:27:57;9.85;;;5.32;;
69188;SDS011;56302;52.322;5.926;2022-08-19T02:30:23;9.60;;;5.27;;
69188;SDS011;56302;52.322;5.926;2022-08-19T02:32:49;9.25;;;5.55;;
69188;SDS011;56302;52.322;5.926;2022-08-19T02:35:16;7.72;;;5.00;;
69188;SDS011;56302;52.322;5.926;2022-08-19T02:37:42;8.38;;;5.32;;
69188;SDS011;56302;52.322;5.926;2022-08-19T02:40:28;8.10;;;5.07;;
69188;SDS011;56302;52.322;5.926;2022-08-19T02:42:58;8.17;;;5.33;;
69188;SDS011;56302;52.322;5.926;2022-08-19T02:45:24;6.85;;;5.10;;
69188;SDS011;56302;52.322;5.926;2022-08-19T02:47:50;6.67;;;4.57;;
69188;SDS011;56302;52.322;5.926;2022-08-19T02:50:15;8.48;;;5.05;;
69188;SDS011;56302;52.322;5.926;2022-08-19T02:52:41;6.30;;;4.07;;
69188;SDS011;56302;52.322;5.926;2022-08-19T02:55:07;7.57;;;4.03;;
69188;SDS011;56302;52.322;5.926;2022-08-19T02:57:32;7.07;;;4.78;;
69188;SDS011;56302;52.322;5.926;2022-08-19T02:59:59;6.75;;;4.43;;
69188;SDS011;56302;52.322;5.926;2022-08-19T03:02:24;6.53;;;4.40;;
69188;SDS011;56302;52.322;5.926;2022-08-19T03:04:50;8.55;;;4.10;;
69188;SDS011;56302;52.322;5.926;2022-08-19T03:07:16;9.63;;;5.20;;
69188;SDS011;56302;52.322;5.926;2022-08-19T03:09:43;7.38;;;4.72;;
69188;SDS011;56302;52.322;5.926;2022-08-19T03:12:09;7.60;;;4.63;;
69188;SDS011;56302;52.322;5.926;2022-08-19T03:14:35;8.37;;;5.07;;
69188;SDS011;56302;52.322;5.926;2022-08-19T03:17:01;8.60;;;4.82;;
69188;SDS011;56302;52.322;5.926;2022-08-19T03:19:29;8.88;;;5.28;;
69188;SDS011;56302;52.322;5.926;2022-08-19T03:21:56;10.10;;;5.90;;
69188;SDS011;56302;52.322;5.926;2022-08-19T03:24:22;8.85;;;5.75;;
69188;SDS011;56302;52.322;5.926;2022-08-19T03:26:49;8.93;;;6.10;;
69188;SDS011;56302;52.322;5.926;2022-08-19T03:29:16;10.57;;;6.38;;
69188;SDS011;56302;52.322;5.926;2022-08-19T03:31:43;9.95;;;6.57;;
69188;SDS011;56302;52.322;5.926;2022-08-19T03:34:31;9.37;;;5.57;;
69188;SDS011;56302;52.322;5.926;2022-08-19T03:36:57;8.20;;;5.47;;
69188;SDS011;56302;52.322;5.926;2022-08-19T03:39:25;11.07;;;6.57;;
69188;SDS011;56302;52.322;5.926;2022-08-19T03:41:52;6.93;;;5.53;;
69188;SDS011;56302;52.322;5.926;2022-08-19T03:44:21;9.63;;;5.75;;
69188;SDS011;56302;52.322;5.926;2022-08-19T03:46:51;8.17;;;5.20;;
69188;SDS011;56302;52.322;5.926;2022-08-19T03:49:20;8.13;;;5.85;;
69188;SDS011;56302;52.322;5.926;2022-08-19T03:51:48;8.27;;;4.70;;
69188;SDS011;56302;52.322;5.926;2022-08-19T03:54:15;8.60;;;5.80;;
69188;SDS011;56302;52.322;5.926;2022-08-19T03:56:45;8.52;;;5.68;;
69188;SDS011;56302;52.322;5.926;2022-08-19T03:59:14;9.60;;;6.10;;
69188;SDS011;56302;52.322;5.926;2022-08-19T04:01:41;8.73;;;5.95;;
69188;SDS011;56302;52.322;5.926;2022-08-19T04:04:08;12.00;;;6.43;;
69188;SDS011;56302;52.322;5.926;2022-08-19T04:06:34;8.95;;;6.05;;
69188;SDS011;56302;52.322;5.926;2022-08-19T04:09:03;11.48;;;6.18;;
69188;SDS011;56302;52.322;5.926;2022-08-19T04:11:33;9.57;;;6.10;;
69188;SDS011;56302;52.322;5.926;2022-08-19T04:14:00;14.57;;;6.63;;
69188;SDS011;56302;52.322;5.926;2022-08-19T04:16:26;12.95;;;6.80;;
69188;SDS011;56302;52.322;5.926;2022-08-19T04:18:53;8.93;;;5.93;;
69188;SDS011;56302;52.322;5.926;2022-08-19T04:21:22;11.77;;;7.28;;
69188;SDS011;56302;52.322;5.926;2022-08-19T04:23:49;11.85;;;6.70;;
69188;SDS011;56302;52.322;5.926;2022-08-19T04:26:16;10.07;;;5.90;;
69188;SDS011;56302;52.322;5.926;2022-08-19T04:28:43;11.57;;;5.63;;
69188;SDS011;56302;52.322;5.926;2022-08-19T04:31:13;7.43;;;4.57;;
69188;SDS011;56302;52.322;5.926;2022-08-19T04:33:43;10.90;;;6.00;;
69188;SDS011;56302;52.322;5.926;2022-08-19T04:36:16;8.35;;;5.82;;
69188;SDS011;56302;52.322;5.926;2022-08-19T04:38:45;9.37;;;5.90;;
69188;SDS011;56302;52.322;5.926;2022-08-19T04:41:12;10.05;;;6.68;;
69188;SDS011;56302;52.322;5.926;2022-08-19T04:43:57;12.60;;;7.60;;
69188;SDS011;56302;52.322;5.926;2022-08-19T04:46:22;12.97;;;7.47;;
69188;SDS011;56302;52.322;5.926;2022-08-19T04:48:48;12.23;;;6.88;;
69188;SDS011;56302;52.322;5.926;2022-08-19T04:51:13;10.77;;;6.27;;
69188;SDS011;56302;52.322;5.926;2022-08-19T04:53:40;10.70;;;6.35;;
69188;SDS011;56302;52.322;5.926;2022-08-19T04:56:09;10.43;;;5.90;;
69188;SDS011;56302;52.322;5.926;2022-08-19T04:58:37;9.10;;;5.82;;
69188;SDS011;56302;52.322;5.926;2022-08-19T05:01:04;11.40;;;5.97;;
69188;SDS011;56302;52.322;5.926;2022-08-19T05:03:30;12.40;;;6.80;;
69188;SDS011;56302;52.322;5.926;2022-08-19T05:05:59;9.90;;;6.75;;
69188;SDS011;56302;52.322;5.926;2022-08-19T05:08:31;11.57;;;6.43;;
69188;SDS011;56302;52.322;5.926;2022-08-19T05:10:56;8.57;;;5.72;;
69188;SDS011;56302;52.322;5.926;2022-08-19T05:13:22;14.30;;;7.10;;
69188;SDS011;56302;52.322;5.926;2022-08-19T05:15:57;9.95;;;6.15;;
69188;SDS011;56302;52.322;5.926;2022-08-19T05:18:23;11.05;;;7.22;;
69188;SDS011;56302;52.322;5.926;2022-08-19T05:21:08;10.00;;;6.07;;
69188;SDS011;56302;52.322;5.926;2022-08-19T05:23:55;11.38;;;6.50;;
69188;SDS011;56302;52.322;5.926;2022-08-19T05:26:21;13.02;;;5.97;;
69188;SDS011;56302;52.322;5.926;2022-08-19T05:28:46;9.67;;;5.47;;
69188;SDS011;56302;52.322;5.926;2022-08-19T05:31:12;10.27;;;6.47;;
69188;SDS011;56302;52.322;5.926;2022-08-19T05:33:38;10.45;;;6.00;;
69188;SDS011;56302;52.322;5.926;2022-08-19T05:36:05;10.15;;;6.68;;
69188;SDS011;56302;52.322;5.926;2022-08-19T05:38:32;10.90;;;6.00;;
69188;SDS011;56302;52.322;5.926;2022-08-19T05:40:59;9.85;;;6.05;;
69188;SDS011;56302;52.322;5.926;2022-08-19T05:43:24;10.55;;;6.05;;
69188;SDS011;56302;52.322;5.926;2022-08-19T05:45:50;9.97;;;5.57;;
69188;SDS011;56302;52.322;5.926;2022-08-19T05:48:16;10.57;;;5.90;;
69188;SDS011;56302;52.322;5.926;2022-08-19T05:50:45;10.25;;;5.80;;
69188;SDS011;56302;52.322;5.926;2022-08-19T05:53:11;8.65;;;6.05;;
69188;SDS011;56302;52.322;5.926;2022-08-19T05:55:37;9.23;;;5.87;;
69188;SDS011;56302;52.322;5.926;2022-08-19T05:58:03;11.52;;;6.60;;
69188;SDS011;56302;52.322;5.926;2022-08-19T06:00:32;8.30;;;5.95;;
69188;SDS011;56302;52.322;5.926;2022-08-19T06:02:58;9.52;;;6.03;;
69188;SDS011;56302;52.322;5.926;2022-08-19T06:05:27;10.20;;;6.90;;
69188;SDS011;56302;52.322;5.926;2022-08-19T06:07:56;10.50;;;6.43;;
69188;SDS011;56302;52.322;5.926;2022-08-19T06:10:24;14.10;;;7.88;;
69188;SDS011;56302;52.322;5.926;2022-08-19T06:12:49;10.75;;;7.13;;
69188;SDS011;56302;52.322;5.926;2022-08-19T06:15:15;13.33;;;6.33;;
69188;SDS011;56302;52.322;5.926;2022-08-19T06:17:41;16.07;;;7.47;;
69188;SDS011;56302;52.322;5.926;2022-08-19T06:20:10;17.83;;;8.77;;
69188;SDS011;56302;52.322;5.926;2022-08-19T06:22:39;21.30;;;9.60;;
69188;SDS011;56302;52.322;5.926;2022-08-19T06:25:05;21.02;;;10.40;;
69188;SDS011;56302;52.322;5.926;2022-08-19T06:27:31;20.38;;;10.15;;
69188;SDS011;56302;52.322;5.926;2022-08-19T06:29:58;21.55;;;12.48;;
69188;SDS011;56302;52.322;5.926;2022-08-19T06:32:23;18.37;;;12.07;;
69188;SDS011;56302;52.322;5.926;2022-08-19T06:34:49;27.77;;;14.50;;
69188;SDS011;56302;52.322;5.926;2022-08-19T06:37:15;29.10;;;15.93;;
69188;SDS011;56302;52.322;5.926;2022-08-19T06:39:41;34.60;;;16.80;;
69188;SDS011;56302;52.322;5.926;2022-08-19T06:42:08;32.05;;;17.92;;
69188;SDS011;56302;52.322;5.926;2022-08-19T06:44:37;34.15;;;18.23;;
69188;SDS011;56302;52.322;5.926;2022-08-19T06:47:04;30.65;;;17.52;;
69188;SDS011;56302;52.322;5.926;2022-08-19T06:49:33;34.00;;;17.97;;
69188;SDS011;56302;52.322;5.926;2022-08-19T06:51:59;26.88;;;17.08;;
69188;SDS011;56302;52.322;5.926;2022-08-19T06:54:25;27.17;;;17.67;;
69188;SDS011;56302;52.322;5.926;2022-08-19T06:56:54;26.45;;;18.58;;
69188;SDS011;56302;52.322;5.926;2022-08-19T06:59:21;27.83;;;17.75;;
69188;SDS011;56302;52.322;5.926;2022-08-19T07:01:52;27.27;;;18.00;;
69188;SDS011;56302;52.322;5.926;2022-08-19T07:04:20;30.55;;;19.13;;
69188;SDS011;56302;52.322;5.926;2022-08-19T07:07:25;32.53;;;18.13;;
69188;SDS011;56302;52.322;5.926;2022-08-19T07:09:45;29.90;;;18.85;;
69188;SDS011;56302;52.322;5.926;2022-08-19T07:12:12;25.87;;;16.93;;
69188;SDS011;56302;52.322;5.926;2022-08-19T07:14:40;26.77;;;17.35;;
69188;SDS011;56302;52.322;5.926;2022-08-19T07:17:07;30.52;;;18.98;;
69188;SDS011;56302;52.322;5.926;2022-08-19T07:19:35;29.27;;;18.52;;
69188;SDS011;56302;52.322;5.926;2022-08-19T07:22:03;30.00;;;20.27;;
69188;SDS011;56302;52.322;5.926;2022-08-19T07:24:30;27.77;;;18.97;;
69188;SDS011;56302;52.322;5.926;2022-08-19T07:26:57;36.25;;;21.42;;
69188;SDS011;56302;52.322;5.926;2022-08-19T07:29:25;31.10;;;21.00;;
69188;SDS011;56302;52.322;5.926;2022-08-19T07:31:51;29.00;;;20.70;;
69188;SDS011;56302;52.322;5.926;2022-08-19T07:34:20;28.02;;;20.10;;
69188;SDS011;56302;52.322;5.926;2022-08-19T07:36:46;27.73;;;20.07;;
69188;SDS011;56302;52.322;5.926;2022-08-19T07:39:16;32.20;;;20.10;;
69188;SDS011;56302;52.322;5.926;2022-08-19T07:41:44;32.17;;;20.65;;
69188;SDS011;56302;52.322;5.926;2022-08-19T07:44:11;29.50;;;19.30;;
69188;SDS011;56302;52.322;5.926;2022-08-19T07:46:39;27.42;;;19.60;;
69188;SDS011;56302;52.322;5.926;2022-08-19T07:49:09;25.08;;;18.13;;
69188;SDS011;56302;52.322;5.926;2022-08-19T07:51:43;27.70;;;17.17;;
69188;SDS011;56302;52.322;5.926;2022-08-19T07:54:17;28.88;;;17.85;;
69188;SDS011;56302;52.322;5.926;2022-08-19T07:56:44;26.03;;;18.50;;
69188;SDS011;56302;52.322;5.926;2022-08-19T07:59:10;31.88;;;19.63;;
69188;SDS011;56302;52.322;5.926;2022-08-19T08:01:36;27.55;;;18.65;;
69188;SDS011;56302;52.322;5.926;2022-08-19T08:04:04;30.52;;;19.48;;
69188;SDS011;56302;52.322;5.926;2022-08-19T08:06:50;23.13;;;16.27;;
69188;SDS011;56302;52.322;5.926;2022-08-19T08:09:36;24.45;;;16.48;;
69188;SDS011;56302;52.322;5.926;2022-08-19T08:12:04;26.15;;;17.55;;
69188;SDS011;56302;52.322;5.926;2022-08-19T08:14:34;25.52;;;16.40;;
69188;SDS011;56302;52.322;5.926;2022-08-19T08:17:02;27.58;;;18.20;;
69188;SDS011;56302;52.322;5.926;2022-08-19T08:19:29;26.97;;;17.77;;
69188;SDS011;56302;52.322;5.926;2022-08-19T08:21:57;24.88;;;16.95;;
69188;SDS011;56302;52.322;5.926;2022-08-19T08:24:24;28.10;;;17.30;;
69188;SDS011;56302;52.322;5.926;2022-08-19T08:26:51;24.65;;;16.00;;
69188;SDS011;56302;52.322;5.926;2022-08-19T08:29:17;23.40;;;14.93;;
69188;SDS011;56302;52.322;5.926;2022-08-19T08:31:44;20.58;;;14.65;;
69188;SDS011;56302;52.322;5.926;2022-08-19T08:34:11;20.10;;;13.43;;
69188;SDS011;56302;52.322;5.926;2022-08-19T08:36:39;19.10;;;12.82;;
69188;SDS011;56302;52.322;5.926;2022-08-19T08:39:17;17.07;;;13.40;;
69188;SDS011;56302;52.322;5.926;2022-08-19T08:47:03;22.58;;;16.35;;
69188;SDS011;56302;52.322;5.926;2022-08-19T08:49:43;23.52;;;15.27;;
69188;SDS011;56302;52.322;5.926;2022-08-19T08:52:23;23.27;;;16.73;;
69188;SDS011;56302;52.322;5.926;2022-08-19T08:54:54;21.80;;;14.50;;
69188;SDS011;56302;52.322;5.926;2022-08-19T08:57:24;21.00;;;15.15;;
69188;SDS011;56302;52.322;5.926;2022-08-19T09:00:00;20.15;;;13.93;;
69188;SDS011;56302;52.322;5.926;2022-08-19T09:02:31;19.77;;;12.57;;
69188;SDS011;56302;52.322;5.926;2022-08-19T09:04:57;21.93;;;16.00;;
69188;SDS011;56302;52.322;5.926;2022-08-19T09:09:52;25.42;;;18.77;;
69188;SDS011;56302;52.322;5.926;2022-08-19T09:12:35;25.40;;;19.15;;
69188;SDS011;56302;52.322;5.926;2022-08-19T09:15:07;27.17;;;18.07;;
69188;SDS011;56302;52.322;5.926;2022-08-19T09:17:37;28.05;;;18.40;;
69188;SDS011;56302;52.322;5.926;2022-08-19T09:22:34;21.55;;;14.38;;
69188;SDS011;56302;52.322;5.926;2022-08-19T09:25:01;19.35;;;13.38;;
69188;SDS011;56302;52.322;5.926;2022-08-19T09:27:27;19.83;;;13.47;;
69188;SDS011;56302;52.322;5.926;2022-08-19T09:29:53;14.50;;;11.35;;
69188;SDS011;56302;52.322;5.926;2022-08-19T09:32:19;20.13;;;12.88;;
69188;SDS011;56302;52.322;5.926;2022-08-19T09:34:46;21.40;;;15.73;;
69188;SDS011;56302;52.322;5.926;2022-08-19T09:37:11;24.13;;;18.23;;
69188;SDS011;56302;52.322;5.926;2022-08-19T09:39:37;27.27;;;19.13;;
69188;SDS011;56302;52.322;5.926;2022-08-19T09:42:05;27.95;;;19.00;;
69188;SDS011;56302;52.322;5.926;2022-08-19T09:44:36;22.92;;;17.17;;
69188;SDS011;56302;52.322;5.926;2022-08-19T09:47:02;21.75;;;15.85;;
69188;SDS011;56302;52.322;5.926;2022-08-19T09:49:28;21.77;;;16.90;;
69188;SDS011;56302;52.322;5.926;2022-08-19T09:51:54;23.55;;;16.92;;
69188;SDS011;56302;52.322;5.926;2022-08-19T09:54:21;22.60;;;16.70;;
69188;SDS011;56302;52.322;5.926;2022-08-19T09:56:48;26.33;;;18.87;;
69188;SDS011;56302;52.322;5.926;2022-08-19T09:59:13;25.50;;;18.52;;
69188;SDS011;56302;52.322;5.926;2022-08-19T10:01:39;23.40;;;16.57;;
69188;SDS011;56302;52.322;5.926;2022-08-19T10:04:04;26.43;;;18.60;;
69188;SDS011;56302;52.322;5.926;2022-08-19T10:06:34;27.15;;;18.10;;
69188;SDS011;56302;52.322;5.926;2022-08-19T10:09:01;23.73;;;17.42;;
69188;SDS011;56302;52.322;5.926;2022-08-19T10:11:29;20.73;;;14.83;;
69188;SDS011;56302;52.322;5.926;2022-08-19T10:13:54;21.63;;;15.23;;
69188;SDS011;56302;52.322;5.926;2022-08-19T10:16:21;19.43;;;14.37;;
69188;SDS011;56302;52.322;5.926;2022-08-19T10:18:47;20.05;;;13.63;;
69188;SDS011;56302;52.322;5.926;2022-08-19T10:21:24;16.65;;;12.35;;
69188;SDS011;56302;52.322;5.926;2022-08-19T10:23:52;17.95;;;11.90;;
69188;SDS011;56302;52.322;5.926;2022-08-19T10:26:22;16.50;;;11.57;;
69188;SDS011;56302;52.322;5.926;2022-08-19T10:28:52;13.38;;;10.63;;
69188;SDS011;56302;52.322;5.926;2022-08-19T10:31:20;14.20;;;10.00;;
69188;SDS011;56302;52.322;5.926;2022-08-19T10:33:48;14.90;;;12.20;;
69188;SDS011;56302;52.322;5.926;2022-08-19T10:36:18;17.88;;;13.73;;
69188;SDS011;56302;52.322;5.926;2022-08-19T10:38:45;26.47;;;17.30;;
69188;SDS011;56302;52.322;5.926;2022-08-19T10:41:16;24.60;;;18.00;;
69188;SDS011;56302;52.322;5.926;2022-08-19T10:43:41;24.17;;;17.95;;
69188;SDS011;56302;52.322;5.926;2022-08-19T10:46:13;22.88;;;16.90;;
69188;SDS011;56302;52.322;5.926;2022-08-19T10:48:40;24.40;;;17.40;;
69188;SDS011;56302;52.322;5.926;2022-08-19T10:51:06;25.27;;;18.57;;
69188;SDS011;56302;52.322;5.926;2022-08-19T10:53:51;28.65;;;20.52;;
69188;SDS011;56302;52.322;5.926;2022-08-19T10:56:17;28.20;;;19.90;;
69188;SDS011;56302;52.322;5.926;2022-08-19T10:59:02;27.05;;;18.15;;
69188;SDS011;56302;52.322;5.926;2022-08-19T11:01:28;24.20;;;16.73;;
69188;SDS011;56302;52.322;5.926;2022-08-19T11:03:54;25.23;;;18.75;;
69188;SDS011;56302;52.322;5.926;2022-08-19T11:06:22;25.88;;;19.02;;
69188;SDS011;56302;52.322;5.926;2022-08-19T11:08:49;31.30;;;19.83;;
69188;SDS011;56302;52.322;5.926;2022-08-19T11:11:16;26.20;;;18.35;;
69188;SDS011;56302;52.322;5.926;2022-08-19T11:13:42;23.67;;;17.73;;
69188;SDS011;56302;52.322;5.926;2022-08-19T11:18:38;23.65;;;14.35;;
69188;SDS011;56302;52.322;5.926;2022-08-19T11:21:17;22.02;;;15.43;;
69188;SDS011;56302;52.322;5.926;2022-08-19T11:23:47;22.73;;;15.20;;
69188;SDS011;56302;52.322;5.926;2022-08-19T11:26:15;20.95;;;13.57;;
69188;SDS011;56302;52.322;5.926;2022-08-19T11:28:41;30.38;;;14.40;;
69188;SDS011;56302;52.322;5.926;2022-08-19T11:31:14;22.77;;;14.80;;
69188;SDS011;56302;52.322;5.926;2022-08-19T11:33:44;21.03;;;13.80;;
69188;SDS011;56302;52.322;5.926;2022-08-19T11:36:11;19.40;;;15.07;;
69188;SDS011;56302;52.322;5.926;2022-08-19T11:38:37;21.58;;;14.98;;
69188;SDS011;56302;52.322;5.926;2022-08-19T11:41:05;18.63;;;12.07;;
69188;SDS011;56302;52.322;5.926;2022-08-19T11:43:35;18.83;;;13.02;;
69188;SDS011;56302;52.322;5.926;2022-08-19T11:46:05;19.00;;;13.70;;
69188;SDS011;56302;52.322;5.926;2022-08-19T11:48:31;17.25;;;12.20;;
69188;SDS011;56302;52.322;5.926;2022-08-19T11:50:57;18.45;;;13.93;;
69188;SDS011;56302;52.322;5.926;2022-08-19T11:53:23;21.47;;;15.47;;
69188;SDS011;56302;52.322;5.926;2022-08-19T11:55:49;18.85;;;13.15;;
69188;SDS011;56302;52.322;5.926;2022-08-19T11:58:21;17.73;;;13.23;;
69188;SDS011;56302;52.322;5.926;2022-08-19T12:00:47;18.93;;;13.23;;
69188;SDS011;56302;52.322;5.926;2022-08-19T12:03:13;19.88;;;12.27;;
69188;SDS011;56302;52.322;5.926;2022-08-19T12:05:40;15.38;;;11.63;;
69188;SDS011;56302;52.322;5.926;2022-08-19T12:08:07;16.03;;;11.90;;
69188;SDS011;56302;52.322;5.926;2022-08-19T12:10:33;17.60;;;11.88;;
69188;SDS011;56302;52.322;5.926;2022-08-19T12:12:59;21.50;;;13.52;;
69188;SDS011;56302;52.322;5.926;2022-08-19T12:15:26;21.55;;;14.18;;
69188;SDS011;56302;52.322;5.926;2022-08-19T12:17:53;19.77;;;14.35;;
69188;SDS011;56302;52.322;5.926;2022-08-19T12:20:21;19.13;;;14.73;;
69188;SDS011;56302;52.322;5.926;2022-08-19T12:22:48;18.75;;;12.15;;
69188;SDS011;56302;52.322;5.926;2022-08-19T12:25:13;14.23;;;10.65;;
69188;SDS011;56302;52.322;5.926;2022-08-19T12:27:39;14.23;;;9.80;;
69188;SDS011;56302;52.322;5.926;2022-08-19T12:30:06;14.98;;;9.30;;
69188;SDS011;56302;52.322;5.926;2022-08-19T12:32:34;12.45;;;8.38;;
69188;SDS011;56302;52.322;5.926;2022-08-19T12:34:59;11.43;;;8.37;;
69188;SDS011;56302;52.322;5.926;2022-08-19T12:37:26;13.43;;;9.80;;
69188;SDS011;56302;52.322;5.926;2022-08-19T12:39:51;15.70;;;10.63;;
69188;SDS011;56302;52.322;5.926;2022-08-19T12:42:17;18.10;;;11.10;;
69188;SDS011;56302;52.322;5.926;2022-08-19T12:44:43;14.77;;;10.65;;
69188;SDS011;56302;52.322;5.926;2022-08-19T12:47:10;14.35;;;11.18;;
69188;SDS011;56302;52.322;5.926;2022-08-19T12:49:37;15.20;;;11.05;;
69188;SDS011;56302;52.322;5.926;2022-08-19T12:52:04;13.57;;;9.77;;
69188;SDS011;56302;52.322;5.926;2022-08-19T12:54:30;15.40;;;10.52;;
69188;SDS011;56302;52.322;5.926;2022-08-19T12:56:57;15.23;;;11.95;;
69188;SDS011;56302;52.322;5.926;2022-08-19T12:59:24;18.08;;;13.10;;
69188;SDS011;56302;52.322;5.926;2022-08-19T13:01:50;16.17;;;13.10;;
69188;SDS011;56302;52.322;5.926;2022-08-19T13:04:16;17.20;;;11.75;;
69188;SDS011;56302;52.322;5.926;2022-08-19T13:06:41;15.97;;;11.97;;
69188;SDS011;56302;52.322;5.926;2022-08-19T13:09:07;16.75;;;12.00;;
69188;SDS011;56302;52.322;5.926;2022-08-19T13:11:33;17.63;;;10.82;;
69188;SDS011;56302;52.322;5.926;2022-08-19T13:14:00;15.90;;;11.40;;
69188;SDS011;56302;52.322;5.926;2022-08-19T13:16:27;17.02;;;12.07;;
69188;SDS011;56302;52.322;5.926;2022-08-19T13:18:53;15.13;;;11.68;;
69188;SDS011;56302;52.322;5.926;2022-08-19T13:21:21;21.57;;;13.03;;
69188;SDS011;56302;52.322;5.926;2022-08-19T13:23:48;18.00;;;12.43;;
69188;SDS011;56302;52.322;5.926;2022-08-19T13:26:14;18.92;;;12.10;;
69188;SDS011;56302;52.322;5.926;2022-08-19T13:28:41;24.70;;;13.10;;
69188;SDS011;56302;52.322;5.926;2022-08-19T13:31:26;21.35;;;13.93;;
69188;SDS011;56302;52.322;5.926;2022-08-19T13:34:12;18.43;;;13.97;;
69188;SDS011;56302;52.322;5.926;2022-08-19T13:36:38;22.98;;;15.23;;
69188;SDS011;56302;52.322;5.926;2022-08-19T13:39:05;22.10;;;14.48;;
69188;SDS011;56302;52.322;5.926;2022-08-19T13:41:32;19.47;;;15.23;;
69188;SDS011;56302;52.322;5.926;2022-08-19T13:43:58;23.50;;;15.65;;
69188;SDS011;56302;52.322;5.926;2022-08-19T13:46:24;26.38;;;15.50;;
69188;SDS011;56302;52.322;5.926;2022-08-19T13:48:49;24.70;;;16.07;;
69188;SDS011;56302;52.322;5.926;2022-08-19T13:51:16;24.47;;;15.37;;
69188;SDS011;56302;52.322;5.926;2022-08-19T13:53:43;27.08;;;15.75;;
69188;SDS011;56302;52.322;5.926;2022-08-19T13:56:10;23.75;;;16.10;;
69188;SDS011;56302;52.322;5.926;2022-08-19T13:58:38;22.65;;;15.77;;
69188;SDS011;56302;52.322;5.926;2022-08-19T14:01:04;31.13;;;18.00;;
69188;SDS011;56302;52.322;5.926;2022-08-19T14:03:31;25.08;;;15.40;;
69188;SDS011;56302;52.322;5.926;2022-08-19T14:05:57;20.85;;;15.68;;
69188;SDS011;56302;52.322;5.926;2022-08-19T14:08:24;22.53;;;15.13;;
69188;SDS011;56302;52.322;5.926;2022-08-19T14:10:52;24.10;;;15.55;;
69188;SDS011;56302;52.322;5.926;2022-08-19T14:13:22;23.10;;;16.70;;
69188;SDS011;56302;52.322;5.926;2022-08-19T14:15:49;23.98;;;16.02;;
69188;SDS011;56302;52.322;5.926;2022-08-19T14:18:15;24.83;;;16.55;;
69188;SDS011;56302;52.322;5.926;2022-08-19T14:20:42;23.33;;;16.33;;
69188;SDS011;56302;52.322;5.926;2022-08-19T14:23:08;28.25;;;18.50;;
69188;SDS011;56302;52.322;5.926;2022-08-19T14:25:34;24.50;;;17.43;;
69188;SDS011;56302;52.322;5.926;2022-08-19T14:28:00;26.17;;;17.85;;
69188;SDS011;56302;52.322;5.926;2022-08-19T14:30:30;26.38;;;18.20;;
69188;SDS011;56302;52.322;5.926;2022-08-19T14:32:57;21.58;;;15.75;;
69188;SDS011;56302;52.322;5.926;2022-08-19T14:35:24;20.23;;;14.93;;
69188;SDS011;56302;52.322;5.926;2022-08-19T14:37:55;22.17;;;16.47;;
69188;SDS011;56302;52.322;5.926;2022-08-19T14:40:23;22.30;;;14.63;;
69188;SDS011;56302;52.322;5.926;2022-08-19T14:42:59;25.58;;;14.25;;
69188;SDS011;56302;52.322;5.926;2022-08-19T14:45:28;20.95;;;10.93;;
69188;SDS011;56302;52.322;5.926;2022-08-19T14:47:59;13.45;;;10.57;;
69188;SDS011;56302;52.322;5.926;2022-08-19T14:50:25;13.00;;;9.17;;